sensor_id;sensor_type;location;lat;lon;timestamp;pressure;altitude;pressure_sealevel;temperature;humidity
31225;BME280;17847;31.524;74.366;2023-03-18T00:00:27;98704.69;;;17.59;74.95
31225;BME280;17847;31.524;74.366;2023-03-18T00:03:10;98697.22;;;17.49;74.98
31225;BME280;17847;31.524;74.366;2023-03-18T00:06:07;98695.38;;;17.49;75.67
31225;BME280;17847;31.524;74.366;2023-03-18T00:08:50;98691.31;;;17.47;75.99
31225;BME280;17847;31.524;74.366;2023-03-18T00:11:46;98701.31;;;17.40;75.67
31225;BME280;17847;31.524;74.366;2023-03-18T00:14:28;98699.94;;;17.37;76.28
31225;BME280;17847;31.524;74.366;2023-03-18T00:17:25;98711.03;;;17.29;75.92
31225;BME280;17847;31.524;74.366;2023-03-18T00:20:00;98723.69;;;17.34;76.14
31225;BME280;17847;31.524;74.366;2023-03-18T00:22:56;98731.47;;;17.35;75.98
31225;BME280;17847;31.524;74.366;2023-03-18T00:25:38;98735.09;;;17.29;75.81
31225;BME280;17847;31.524;74.366;2023-03-18T00:28:27;98741.16;;;17.25;76.21
31225;BME280;17847;31.524;74.366;2023-03-18T00:31:11;98742.22;;;17.24;76.37
31225;BME280;17847;31.524;74.366;2023-03-18T00:34:01;98751.53;;;17.21;76.43
31225;BME280;17847;31.524;74.366;2023-03-18T00:36:36;98746.28;;;17.38;76.80
31225;BME280;17847;31.524;74.366;2023-03-18T00:39:33;98752.66;;;17.60;76.20
31225;BME280;17847;31.524;74.366;2023-03-18T00:42:18;98743.34;;;17.63;75.60
31225;BME280;17847;31.524;74.366;2023-03-18T00:45:09;98745.44;;;17.61;76.09
31225;BME280;17847;31.524;74.366;2023-03-18T00:47:59;98749.84;;;17.67;76.40
31225;BME280;17847;31.524;74.366;2023-03-18T00:50:55;98760.56;;;17.67;76.61
31225;BME280;17847;31.524;74.366;2023-03-18T00:53:37;98751.47;;;17.68;76.32
31225;BME280;17847;31.524;74.366;2023-03-18T00:56:30;98762.66;;;17.65;76.45
31225;BME280;17847;31.524;74.366;2023-03-18T00:59:07;98764.59;;;17.81;76.21
31225;BME280;17847;31.524;74.366;2023-03-18T01:02:03;98769.56;;;17.61;76.21
31225;BME280;17847;31.524;74.366;2023-03-18T01:04:39;98773.84;;;17.62;76.52
31225;BME280;17847;31.524;74.366;2023-03-18T01:07:35;98774.41;;;17.75;76.25
31225;BME280;17847;31.524;74.366;2023-03-18T01:10:11;98780.22;;;17.72;75.88
31225;BME280;17847;31.524;74.366;2023-03-18T01:13:08;98788.59;;;17.87;75.96
31225;BME280;17847;31.524;74.366;2023-03-18T01:15:50;98784.75;;;17.83;74.72
31225;BME280;17847;31.524;74.366;2023-03-18T01:18:41;98782.59;;;17.97;75.38
31225;BME280;17847;31.524;74.366;2023-03-18T01:21:26;98785.81;;;17.82;74.33
31225;BME280;17847;31.524;74.366;2023-03-18T01:24:17;98787.72;;;17.99;73.49
31225;BME280;17847;31.524;74.366;2023-03-18T01:27:00;98795.34;;;17.90;73.96
31225;BME280;17847;31.524;74.366;2023-03-18T01:29:53;98807.69;;;17.79;73.94
31225;BME280;17847;31.524;74.366;2023-03-18T01:32:28;98804.78;;;17.81;74.89
31225;BME280;17847;31.524;74.366;2023-03-18T01:35:25;98822.75;;;17.69;74.91
31225;BME280;17847;31.524;74.366;2023-03-18T01:38:02;98831.81;;;17.56;75.31
31225;BME280;17847;31.524;74.366;2023-03-18T01:40:59;98836.81;;;17.52;75.60
31225;BME280;17847;31.524;74.366;2023-03-18T01:43:36;98838.00;;;17.45;76.02
31225;BME280;17847;31.524;74.366;2023-03-18T01:46:39;98847.31;;;17.54;76.27
31225;BME280;17847;31.524;74.366;2023-03-18T01:49:50;98856.38;;;17.53;76.05
31225;BME280;17847;31.524;74.366;2023-03-18T01:52:51;98866.66;;;17.56;76.04
31225;BME280;17847;31.524;74.366;2023-03-18T01:55:30;98873.03;;;17.55;76.35
31225;BME280;17847;31.524;74.366;2023-03-18T01:58:34;98877.94;;;17.46;76.76
31225;BME280;17847;31.524;74.366;2023-03-18T02:04:24;98905.09;;;17.73;76.22
31225;BME280;17847;31.524;74.366;2023-03-18T02:10:22;98914.34;;;17.36;75.50
31225;BME280;17847;31.524;74.366;2023-03-18T02:13:09;98905.63;;;17.40;76.32
31225;BME280;17847;31.524;74.366;2023-03-18T02:16:04;98911.09;;;17.34;76.18
31225;BME280;17847;31.524;74.366;2023-03-18T02:18:51;98913.44;;;17.42;76.26
31225;BME280;17847;31.524;74.366;2023-03-18T02:22:10;98915.41;;;17.46;76.02
31225;BME280;17847;31.524;74.366;2023-03-18T02:28:29;98918.91;;;17.47;74.96
31225;BME280;17847;31.524;74.366;2023-03-18T02:31:11;98927.31;;;17.62;75.81
31225;BME280;17847;31.524;74.366;2023-03-18T02:34:08;98930.13;;;17.67;74.52
31225;BME280;17847;31.524;74.366;2023-03-18T02:36:45;98929.19;;;17.62;74.64
31225;BME280;17847;31.524;74.366;2023-03-18T02:39:44;98921.75;;;17.64;74.78
31225;BME280;17847;31.524;74.366;2023-03-18T02:42:30;98924.31;;;17.59;74.07
31225;BME280;17847;31.524;74.366;2023-03-18T02:48:15;98925.13;;;17.94;73.93
31225;BME280;17847;31.524;74.366;2023-03-18T02:51:11;98924.19;;;18.00;73.59
31225;BME280;17847;31.524;74.366;2023-03-18T02:53:47;98933.38;;;17.92;73.55
31225;BME280;17847;31.524;74.366;2023-03-18T02:56:43;98933.06;;;18.01;74.22
31225;BME280;17847;31.524;74.366;2023-03-18T02:59:20;98928.97;;;18.10;74.13
31225;BME280;17847;31.524;74.366;2023-03-18T03:02:16;98936.31;;;18.14;73.31
31225;BME280;17847;31.524;74.366;2023-03-18T03:04:57;98943.50;;;18.25;73.58
31225;BME280;17847;31.524;74.366;2023-03-18T03:07:47;98945.44;;;18.41;72.59
31225;BME280;17847;31.524;74.366;2023-03-18T03:10:35;98945.91;;;18.38;71.79
31225;BME280;17847;31.524;74.366;2023-03-18T03:13:25;98951.63;;;18.42;70.97
31225;BME280;17847;31.524;74.366;2023-03-18T03:16:01;98947.53;;;18.63;71.42
31225;BME280;17847;31.524;74.366;2023-03-18T03:18:57;98954.66;;;18.57;71.35
31225;BME280;17847;31.524;74.366;2023-03-18T03:21:39;98961.28;;;18.55;70.65
31225;BME280;17847;31.524;74.366;2023-03-18T03:24:31;98959.19;;;18.57;70.54
31225;BME280;17847;31.524;74.366;2023-03-18T03:27:13;98972.13;;;18.60;69.98
31225;BME280;17847;31.524;74.366;2023-03-18T03:30:06;98975.25;;;18.68;69.48
31225;BME280;17847;31.524;74.366;2023-03-18T03:32:41;98979.88;;;18.84;69.66
31225;BME280;17847;31.524;74.366;2023-03-18T03:35:37;98983.88;;;18.99;69.33
31225;BME280;17847;31.524;74.366;2023-03-18T03:38:20;98985.63;;;19.05;69.06
31225;BME280;17847;31.524;74.366;2023-03-18T03:41:11;98991.91;;;19.10;69.84
31225;BME280;17847;31.524;74.366;2023-03-18T03:43:54;98991.56;;;19.35;69.09
31225;BME280;17847;31.524;74.366;2023-03-18T03:46:43;98997.06;;;19.57;68.21
31225;BME280;17847;31.524;74.366;2023-03-18T03:49:32;99001.78;;;19.50;67.69
31225;BME280;17847;31.524;74.366;2023-03-18T03:52:15;99005.72;;;19.59;67.89
31225;BME280;17847;31.524;74.366;2023-03-18T03:55:09;99010.75;;;19.55;69.14
31225;BME280;17847;31.524;74.366;2023-03-18T03:57:54;99008.31;;;19.70;68.76
31225;BME280;17847;31.524;74.366;2023-03-18T04:00:51;99008.13;;;20.10;67.09
31225;BME280;17847;31.524;74.366;2023-03-18T04:03:34;99013.50;;;20.10;67.36
31225;BME280;17847;31.524;74.366;2023-03-18T04:06:30;99009.72;;;20.45;66.27
31225;BME280;17847;31.524;74.366;2023-03-18T04:09:12;99015.69;;;20.69;65.35
31225;BME280;17847;31.524;74.366;2023-03-18T04:12:02;99016.50;;;20.69;65.17
31225;BME280;17847;31.524;74.366;2023-03-18T04:14:51;99014.31;;;20.88;64.97
31225;BME280;17847;31.524;74.366;2023-03-18T04:17:42;99016.56;;;20.96;64.60
31225;BME280;17847;31.524;74.366;2023-03-18T04:20:28;99024.13;;;21.21;64.50
31225;BME280;17847;31.524;74.366;2023-03-18T04:23:30;99031.22;;;21.27;63.53
31225;BME280;17847;31.524;74.366;2023-03-18T04:26:15;99033.09;;;20.61;64.52
31225;BME280;17847;31.524;74.366;2023-03-18T04:29:11;99028.38;;;20.51;65.23
31225;BME280;17847;31.524;74.366;2023-03-18T04:31:53;99031.25;;;20.45;66.20
31225;BME280;17847;31.524;74.366;2023-03-18T04:34:45;99029.09;;;20.63;65.09
31225;BME280;17847;31.524;74.366;2023-03-18T04:37:20;99017.44;;;20.58;65.25
31225;BME280;17847;31.524;74.366;2023-03-18T04:40:19;99027.97;;;20.59;65.47
31225;BME280;17847;31.524;74.366;2023-03-18T04:42:55;99026.38;;;20.63;64.95
31225;BME280;17847;31.524;74.366;2023-03-18T04:45:53;99027.13;;;21.02;64.50
31225;BME280;17847;31.524;74.366;2023-03-18T04:48:31;99029.72;;;20.92;64.09
31225;BME280;17847;31.524;74.366;2023-03-18T04:51:26;99036.47;;;20.95;63.84
31225;BME280;17847;31.524;74.366;2023-03-18T04:54:03;99039.00;;;20.80;63.69
31225;BME280;17847;31.524;74.366;2023-03-18T04:57:03;99034.63;;;21.17;63.32
31225;BME280;17847;31.524;74.366;2023-03-18T04:59:47;99034.78;;;21.32;62.89
31225;BME280;17847;31.524;74.366;2023-03-18T05:02:46;99039.31;;;21.27;62.73
31225;BME280;17847;31.524;74.366;2023-03-18T05:05:27;99040.00;;;20.95;63.12
31225;BME280;17847;31.524;74.366;2023-03-18T05:08:20;99044.78;;;20.93;63.22
31225;BME280;17847;31.524;74.366;2023-03-18T05:11:02;99040.81;;;21.18;63.65
31225;BME280;17847;31.524;74.366;2023-03-18T05:13:51;99048.06;;;21.17;63.34
31225;BME280;17847;31.524;74.366;2023-03-18T05:16:40;99048.34;;;21.69;62.16
31225;BME280;17847;31.524;74.366;2023-03-18T05:19:39;99048.59;;;21.94;61.64
31225;BME280;17847;31.524;74.366;2023-03-18T05:22:19;99048.25;;;22.23;61.09
31225;BME280;17847;31.524;74.366;2023-03-18T05:25:22;99046.47;;;22.80;59.03
31225;BME280;17847;31.524;74.366;2023-03-18T05:27:58;99045.94;;;22.36;59.88
31225;BME280;17847;31.524;74.366;2023-03-18T05:31:16;99041.47;;;23.09;58.65
31225;BME280;17847;31.524;74.366;2023-03-18T05:34:00;99050.66;;;23.23;57.24
31225;BME280;17847;31.524;74.366;2023-03-18T05:36:56;99050.00;;;23.79;56.20
31225;BME280;17847;31.524;74.366;2023-03-18T05:39:32;99049.72;;;24.05;56.68
31225;BME280;17847;31.524;74.366;2023-03-18T05:42:29;99051.88;;;24.13;54.95
31225;BME280;17847;31.524;74.366;2023-03-18T05:45:07;99052.44;;;24.00;54.33
31225;BME280;17847;31.524;74.366;2023-03-18T05:48:03;99049.16;;;24.44;56.12
31225;BME280;17847;31.524;74.366;2023-03-18T05:51:03;99048.94;;;25.20;53.32
31225;BME280;17847;31.524;74.366;2023-03-18T05:53:39;99051.06;;;24.48;52.67
31225;BME280;17847;31.524;74.366;2023-03-18T05:56:40;99052.31;;;24.81;54.51
31225;BME280;17847;31.524;74.366;2023-03-18T05:59:23;99045.69;;;24.38;54.83
31225;BME280;17847;31.524;74.366;2023-03-18T06:02:13;99044.63;;;24.19;53.70
31225;BME280;17847;31.524;74.366;2023-03-18T06:04:55;99041.53;;;24.61;54.36
31225;BME280;17847;31.524;74.366;2023-03-18T06:07:44;99035.38;;;24.15;53.40
31225;BME280;17847;31.524;74.366;2023-03-18T06:10:27;99039.69;;;24.51;54.27
31225;BME280;17847;31.524;74.366;2023-03-18T06:13:17;99036.56;;;24.98;52.70
31225;BME280;17847;31.524;74.366;2023-03-18T06:15:59;99033.88;;;25.42;51.43
31225;BME280;17847;31.524;74.366;2023-03-18T06:18:50;99029.13;;;25.19;49.33
31225;BME280;17847;31.524;74.366;2023-03-18T06:21:33;99033.97;;;25.27;49.08
31225;BME280;17847;31.524;74.366;2023-03-18T06:24:22;99035.25;;;24.81;49.05
31225;BME280;17847;31.524;74.366;2023-03-18T06:27:05;99031.75;;;24.70;50.84
31225;BME280;17847;31.524;74.366;2023-03-18T06:30:00;99031.81;;;24.60;51.31
31225;BME280;17847;31.524;74.366;2023-03-18T06:32:46;99027.25;;;24.40;51.44
31225;BME280;17847;31.524;74.366;2023-03-18T06:35:35;99026.91;;;24.62;52.82
31225;BME280;17847;31.524;74.366;2023-03-18T06:38:18;99014.16;;;24.78;52.75
31225;BME280;17847;31.524;74.366;2023-03-18T06:41:10;99019.03;;;24.66;52.79
31225;BME280;17847;31.524;74.366;2023-03-18T06:44:22;99018.53;;;24.58;52.19
31225;BME280;17847;31.524;74.366;2023-03-18T06:47:21;99010.50;;;23.93;54.33
31225;BME280;17847;31.524;74.366;2023-03-18T06:50:04;99018.34;;;23.69;54.86
31225;BME280;17847;31.524;74.366;2023-03-18T06:52:54;99008.03;;;23.46;56.08
31225;BME280;17847;31.524;74.366;2023-03-18T06:55:36;99008.34;;;23.90;57.26
31225;BME280;17847;31.524;74.366;2023-03-18T06:58:30;98995.91;;;24.19;53.87
31225;BME280;17847;31.524;74.366;2023-03-18T07:01:12;98991.81;;;24.11;54.98
31225;BME280;17847;31.524;74.366;2023-03-18T07:04:08;98993.41;;;24.12;57.18
31225;BME280;17847;31.524;74.366;2023-03-18T07:06:51;98994.50;;;24.42;53.54
31225;BME280;17847;31.524;74.366;2023-03-18T07:09:43;98981.16;;;24.60;55.07
31225;BME280;17847;31.524;74.366;2023-03-18T07:12:25;98992.53;;;24.52;53.20
31225;BME280;17847;31.524;74.366;2023-03-18T07:15:17;98985.34;;;24.02;53.69
31225;BME280;17847;31.524;74.366;2023-03-18T07:18:02;98983.09;;;24.40;54.95
31225;BME280;17847;31.524;74.366;2023-03-18T07:20:53;98974.56;;;24.82;55.15
31225;BME280;17847;31.524;74.366;2023-03-18T07:23:36;98976.47;;;24.76;54.36
31225;BME280;17847;31.524;74.366;2023-03-18T07:26:26;98963.75;;;24.77;53.91
31225;BME280;17847;31.524;74.366;2023-03-18T07:29:10;98965.84;;;24.10;53.93
31225;BME280;17847;31.524;74.366;2023-03-18T07:32:00;98959.91;;;23.73;55.61
31225;BME280;17847;31.524;74.366;2023-03-18T07:34:42;98957.50;;;23.71;56.65
31225;BME280;17847;31.524;74.366;2023-03-18T07:37:31;98959.88;;;23.33;56.01
31225;BME280;17847;31.524;74.366;2023-03-18T07:40:14;98967.19;;;23.22;56.96
31225;BME280;17847;31.524;74.366;2023-03-18T07:43:06;98957.19;;;23.43;58.27
31225;BME280;17847;31.524;74.366;2023-03-18T07:45:49;98960.69;;;23.23;57.39
31225;BME280;17847;31.524;74.366;2023-03-18T07:48:37;98940.75;;;23.54;56.31
31225;BME280;17847;31.524;74.366;2023-03-18T07:51:19;98946.91;;;23.24;54.36
31225;BME280;17847;31.524;74.366;2023-03-18T07:54:15;98939.84;;;23.03;55.85
31225;BME280;17847;31.524;74.366;2023-03-18T07:56:52;98934.44;;;23.08;55.23
31225;BME280;17847;31.524;74.366;2023-03-18T07:59:47;98930.19;;;23.48;54.45
31225;BME280;17847;31.524;74.366;2023-03-18T08:02:39;98926.94;;;23.76;55.76
31225;BME280;17847;31.524;74.366;2023-03-18T08:05:28;98907.94;;;23.96;56.44
31225;BME280;17847;31.524;74.366;2023-03-18T08:08:05;98909.03;;;23.95;54.06
31225;BME280;17847;31.524;74.366;2023-03-18T08:11:01;98902.72;;;24.35;55.62
31225;BME280;17847;31.524;74.366;2023-03-18T08:13:37;98891.97;;;24.00;52.23
31225;BME280;17847;31.524;74.366;2023-03-18T08:16:34;98897.97;;;23.87;52.47
31225;BME280;17847;31.524;74.366;2023-03-18T08:19:15;98900.16;;;23.19;55.57
31225;BME280;17847;31.524;74.366;2023-03-18T08:22:05;98898.72;;;22.76;57.08
31225;BME280;17847;31.524;74.366;2023-03-18T08:24:46;98896.56;;;22.78;58.54
31225;BME280;17847;31.524;74.366;2023-03-18T08:27:36;98885.78;;;22.78;58.72
31225;BME280;17847;31.524;74.366;2023-03-18T08:30:12;98880.13;;;22.95;60.44
31225;BME280;17847;31.524;74.366;2023-03-18T08:33:08;98874.84;;;22.53;58.36
31225;BME280;17847;31.524;74.366;2023-03-18T08:35:50;98868.19;;;22.70;58.72
31225;BME280;17847;31.524;74.366;2023-03-18T08:38:39;98854.66;;;22.60;56.54
31225;BME280;17847;31.524;74.366;2023-03-18T08:41:22;98853.28;;;22.48;56.84
31225;BME280;17847;31.524;74.366;2023-03-18T08:44:13;98844.69;;;22.66;59.51
31225;BME280;17847;31.524;74.366;2023-03-18T08:46:54;98834.69;;;22.61;57.05
31225;BME280;17847;31.524;74.366;2023-03-18T08:49:43;98835.56;;;22.92;59.45
31225;BME280;17847;31.524;74.366;2023-03-18T08:52:24;98838.28;;;22.92;57.68
31225;BME280;17847;31.524;74.366;2023-03-18T08:55:14;98830.41;;;22.86;57.63
31225;BME280;17847;31.524;74.366;2023-03-18T08:57:50;98825.28;;;22.74;59.01
31225;BME280;17847;31.524;74.366;2023-03-18T09:00:46;98821.69;;;22.58;59.01
31225;BME280;17847;31.524;74.366;2023-03-18T09:03:42;98820.34;;;22.56;60.31
31225;BME280;17847;31.524;74.366;2023-03-18T09:06:25;98812.25;;;22.51;59.32
31225;BME280;17847;31.524;74.366;2023-03-18T09:09:18;98810.63;;;22.50;59.22
31225;BME280;17847;31.524;74.366;2023-03-18T09:12:15;98804.16;;;22.61;60.73
31225;BME280;17847;31.524;74.366;2023-03-18T09:15:05;98798.75;;;22.56;60.88
31225;BME280;17847;31.524;74.366;2023-03-18T09:17:50;98793.38;;;22.66;60.62
31225;BME280;17847;31.524;74.366;2023-03-18T09:20:52;98787.16;;;22.55;59.36
31225;BME280;17847;31.524;74.366;2023-03-18T09:23:34;98784.19;;;22.52;60.12
31225;BME280;17847;31.524;74.366;2023-03-18T09:26:24;98779.59;;;22.52;60.26
31225;BME280;17847;31.524;74.366;2023-03-18T09:29:06;98767.50;;;22.70;58.93
31225;BME280;17847;31.524;74.366;2023-03-18T09:31:55;98775.81;;;22.58;59.63
31225;BME280;17847;31.524;74.366;2023-03-18T09:34:37;98768.28;;;22.70;60.13
31225;BME280;17847;31.524;74.366;2023-03-18T09:37:27;98761.78;;;22.56;60.32
31225;BME280;17847;31.524;74.366;2023-03-18T09:40:29;98758.81;;;22.68;59.98
31225;BME280;17847;31.524;74.366;2023-03-18T09:52:55;98743.97;;;22.65;58.63
31225;BME280;17847;31.524;74.366;2023-03-18T09:55:58;98745.34;;;22.73;58.00
31225;BME280;17847;31.524;74.366;2023-03-18T10:01:42;98732.38;;;22.80;59.95
31225;BME280;17847;31.524;74.366;2023-03-18T10:04:35;98730.47;;;22.91;59.47
31225;BME280;17847;31.524;74.366;2023-03-18T10:07:32;98719.91;;;22.59;58.95
31225;BME280;17847;31.524;74.366;2023-03-18T10:10:26;98715.63;;;22.88;60.49
31225;BME280;17847;31.524;74.366;2023-03-18T10:13:25;98711.56;;;22.91;57.48
31225;BME280;17847;31.524;74.366;2023-03-18T10:16:19;98710.19;;;23.03;59.74
31225;BME280;17847;31.524;74.366;2023-03-18T10:19:09;98711.00;;;23.09;59.54
31225;BME280;17847;31.524;74.366;2023-03-18T10:25:08;98705.31;;;23.10;60.30
31225;BME280;17847;31.524;74.366;2023-03-18T10:34:01;98692.66;;;22.80;59.51
31225;BME280;17847;31.524;74.366;2023-03-18T10:39:46;98687.78;;;22.98;61.10
31225;BME280;17847;31.524;74.366;2023-03-18T10:42:37;98687.50;;;23.04;58.68
31225;BME280;17847;31.524;74.366;2023-03-18T10:45:31;98677.22;;;23.16;61.07
31225;BME280;17847;31.524;74.366;2023-03-18T10:48:37;98671.88;;;22.96;59.22
31225;BME280;17847;31.524;74.366;2023-03-18T10:57:19;98664.59;;;22.92;60.70
31225;BME280;17847;31.524;74.366;2023-03-18T11:00:25;98657.00;;;22.99;60.77
31225;BME280;17847;31.524;74.366;2023-03-18T11:03:19;98654.03;;;23.00;60.18
31225;BME280;17847;31.524;74.366;2023-03-18T11:06:15;98662.97;;;22.86;60.97
31225;BME280;17847;31.524;74.366;2023-03-18T11:09:15;98656.75;;;22.65;61.22
31225;BME280;17847;31.524;74.366;2023-03-18T11:14:57;98648.13;;;22.78;61.44
31225;BME280;17847;31.524;74.366;2023-03-18T11:17:48;98652.97;;;22.66;60.61
31225;BME280;17847;31.524;74.366;2023-03-18T11:20:38;98652.72;;;22.32;61.91
31225;BME280;17847;31.524;74.366;2023-03-18T11:23:35;98650.03;;;22.47;61.11
31225;BME280;17847;31.524;74.366;2023-03-18T11:26:29;98639.75;;;22.49;59.80
31225;BME280;17847;31.524;74.366;2023-03-18T11:29:22;98648.66;;;22.45;60.84
31225;BME280;17847;31.524;74.366;2023-03-18T11:32:26;98648.66;;;22.55;62.56
31225;BME280;17847;31.524;74.366;2023-03-18T11:35:21;98650.53;;;22.14;60.33
31225;BME280;17847;31.524;74.366;2023-03-18T11:38:14;98644.59;;;21.97;60.39
31225;BME280;17847;31.524;74.366;2023-03-18T11:41:19;98641.09;;;22.11;61.16
31225;BME280;17847;31.524;74.366;2023-03-18T11:44:17;98647.53;;;21.90;60.93
31225;BME280;17847;31.524;74.366;2023-03-18T11:47:18;98645.34;;;21.92;59.15
31225;BME280;17847;31.524;74.366;2023-03-18T11:50:18;98645.66;;;22.01;59.77
31225;BME280;17847;31.524;74.366;2023-03-18T11:54:01;98643.25;;;21.99;61.39
31225;BME280;17847;31.524;74.366;2023-03-18T11:56:45;98645.63;;;21.85;60.47
31225;BME280;17847;31.524;74.366;2023-03-18T12:06:32;98645.41;;;21.97;61.52
31225;BME280;17847;31.524;74.366;2023-03-18T12:12:02;98652.84;;;21.70;61.21
31225;BME280;17847;31.524;74.366;2023-03-18T12:14:53;98650.69;;;21.67;62.04
31225;BME280;17847;31.524;74.366;2023-03-18T12:18:14;98647.66;;;21.48;60.61
31225;BME280;17847;31.524;74.366;2023-03-18T12:24:48;98651.97;;;21.49;61.25
31225;BME280;17847;31.524;74.366;2023-03-18T12:33:58;98650.91;;;21.45;62.60
31225;BME280;17847;31.524;74.366;2023-03-18T12:37:25;98645.69;;;21.23;62.97
31225;BME280;17847;31.524;74.366;2023-03-18T12:47:44;98649.13;;;21.14;63.34
31225;BME280;17847;31.524;74.366;2023-03-18T12:50:16;98649.31;;;21.02;63.71
31225;BME280;17847;31.524;74.366;2023-03-18T12:53:26;98659.56;;;21.05;64.57
31225;BME280;17847;31.524;74.366;2023-03-18T12:56:15;98651.63;;;20.83;62.14
31225;BME280;17847;31.524;74.366;2023-03-18T12:59:23;98655.50;;;21.02;64.66
31225;BME280;17847;31.524;74.366;2023-03-18T13:05:51;98654.16;;;21.00;65.13
31225;BME280;17847;31.524;74.366;2023-03-18T13:17:54;98659.09;;;20.76;64.41
31225;BME280;17847;31.524;74.366;2023-03-18T13:20:40;98653.59;;;20.98;65.23
31225;BME280;17847;31.524;74.366;2023-03-18T13:23:37;98651.72;;;21.03;65.38
31225;BME280;17847;31.524;74.366;2023-03-18T13:42:34;98655.94;;;20.84;64.78
31225;BME280;17847;31.524;74.366;2023-03-18T13:48:21;98662.03;;;20.70;64.91
31225;BME280;17847;31.524;74.366;2023-03-18T13:54:14;98665.94;;;20.52;65.21
31225;BME280;17847;31.524;74.366;2023-03-18T13:57:30;98669.94;;;20.23;66.06
31225;BME280;17847;31.524;74.366;2023-03-18T14:00:23;98669.19;;;20.27;66.00
31225;BME280;17847;31.524;74.366;2023-03-18T14:07:10;98668.84;;;20.45;66.54
31225;BME280;17847;31.524;74.366;2023-03-18T14:09:33;98666.59;;;20.69;65.23
31225;BME280;17847;31.524;74.366;2023-03-18T14:12:43;98662.25;;;20.63;64.77
31225;BME280;17847;31.524;74.366;2023-03-18T14:15:41;98668.88;;;20.50;65.91
31225;BME280;17847;31.524;74.366;2023-03-18T14:18:32;98672.47;;;20.61;65.64
31225;BME280;17847;31.524;74.366;2023-03-18T14:21:31;98679.16;;;20.58;66.31
31225;BME280;17847;31.524;74.366;2023-03-18T14:24:12;98675.59;;;20.48;65.06
31225;BME280;17847;31.524;74.366;2023-03-18T14:27:18;98691.25;;;20.56;64.29
31225;BME280;17847;31.524;74.366;2023-03-18T14:36:07;98690.69;;;20.49;65.76
31225;BME280;17847;31.524;74.366;2023-03-18T14:39:01;98705.09;;;20.38;65.25
31225;BME280;17847;31.524;74.366;2023-03-18T14:41:48;98708.09;;;20.41;65.71
31225;BME280;17847;31.524;74.366;2023-03-18T14:44:46;98705.59;;;20.61;66.53
31225;BME280;17847;31.524;74.366;2023-03-18T14:47:50;98710.00;;;20.78;66.41
31225;BME280;17847;31.524;74.366;2023-03-18T14:50:43;98711.09;;;20.82;66.57
31225;BME280;17847;31.524;74.366;2023-03-18T14:53:34;98713.84;;;20.87;66.13
31225;BME280;17847;31.524;74.366;2023-03-18T14:56:29;98711.19;;;20.92;65.88
31225;BME280;17847;31.524;74.366;2023-03-18T14:59:05;98720.13;;;20.97;65.92
31225;BME280;17847;31.524;74.366;2023-03-18T15:02:05;98713.97;;;21.02;65.82
31225;BME280;17847;31.524;74.366;2023-03-18T15:04:55;98716.69;;;21.12;65.61
31225;BME280;17847;31.524;74.366;2023-03-18T15:07:50;98717.84;;;21.21;65.12
31225;BME280;17847;31.524;74.366;2023-03-18T15:10:32;98715.34;;;21.10;65.15
31225;BME280;17847;31.524;74.366;2023-03-18T15:13:23;98720.72;;;21.10;65.32
31225;BME280;17847;31.524;74.366;2023-03-18T15:16:09;98720.44;;;21.06;65.23
31225;BME280;17847;31.524;74.366;2023-03-18T15:18:59;98721.34;;;20.80;63.31
31225;BME280;17847;31.524;74.366;2023-03-18T15:21:41;98724.41;;;20.61;64.70
31225;BME280;17847;31.524;74.366;2023-03-18T15:24:31;98728.97;;;20.61;64.76
31225;BME280;17847;31.524;74.366;2023-03-18T15:27:17;98730.22;;;20.48;66.63
31225;BME280;17847;31.524;74.366;2023-03-18T15:30:28;98732.56;;;20.40;66.11
31225;BME280;17847;31.524;74.366;2023-03-18T15:33:24;98729.56;;;20.36;65.58
31225;BME280;17847;31.524;74.366;2023-03-18T15:36:16;98727.19;;;20.18;66.55
31225;BME280;17847;31.524;74.366;2023-03-18T15:38:58;98721.84;;;19.96;66.20
31225;BME280;17847;31.524;74.366;2023-03-18T15:41:51;98727.97;;;19.87;66.46
31225;BME280;17847;31.524;74.366;2023-03-18T15:44:37;98724.50;;;19.91;68.07
31225;BME280;17847;31.524;74.366;2023-03-18T15:47:31;98727.03;;;20.03;67.62
31225;BME280;17847;31.524;74.366;2023-03-18T15:50:24;98734.09;;;20.31;66.82
31225;BME280;17847;31.524;74.366;2023-03-18T15:56:46;98740.06;;;20.38;67.83
31225;BME280;17847;31.524;74.366;2023-03-18T15:59:31;98740.91;;;20.16;66.56
31225;BME280;17847;31.524;74.366;2023-03-18T16:02:20;98740.06;;;20.38;66.65
31225;BME280;17847;31.524;74.366;2023-03-18T16:05:19;98742.72;;;20.11;68.47
31225;BME280;17847;31.524;74.366;2023-03-18T16:08:10;98732.88;;;20.43;67.95
31225;BME280;17847;31.524;74.366;2023-03-18T16:10:56;98728.56;;;20.21;65.86
31225;BME280;17847;31.524;74.366;2023-03-18T16:13:46;98736.63;;;19.72;68.70
31225;BME280;17847;31.524;74.366;2023-03-18T16:16:28;98737.19;;;19.52;70.50
31225;BME280;17847;31.524;74.366;2023-03-18T16:19:25;98735.81;;;19.71;71.16
31225;BME280;17847;31.524;74.366;2023-03-18T16:22:09;98722.44;;;20.52;68.44
31225;BME280;17847;31.524;74.366;2023-03-18T16:24:58;98724.28;;;20.78;67.44
31225;BME280;17847;31.524;74.366;2023-03-18T16:27:42;98727.88;;;20.89;67.11
31225;BME280;17847;31.524;74.366;2023-03-18T16:30:32;98724.13;;;20.95;66.71
31225;BME280;17847;31.524;74.366;2023-03-18T16:33:15;98727.75;;;21.11;66.18
31225;BME280;17847;31.524;74.366;2023-03-18T16:36:05;98724.84;;;21.17;66.07
31225;BME280;17847;31.524;74.366;2023-03-18T16:38:48;98721.13;;;21.23;66.02
31225;BME280;17847;31.524;74.366;2023-03-18T16:41:38;98719.22;;;21.24;65.76
31225;BME280;17847;31.524;74.366;2023-03-18T16:44:21;98722.44;;;21.21;65.82
31225;BME280;17847;31.524;74.366;2023-03-18T16:47:28;98717.03;;;21.21;66.20
31225;BME280;17847;31.524;74.366;2023-03-18T16:50:22;98721.91;;;21.19;66.27